createdAt,value
2018-07-17T00:02:20.713Z,3.40
2018-07-17T00:04:48.684Z,4.37
2018-07-17T00:07:16.808Z,3.70
2018-07-17T00:09:45.426Z,4.10
2018-07-17T00:12:13.090Z,4.00
2018-07-17T00:14:40.862Z,4.00
2018-07-17T00:17:09.103Z,3.60
2018-07-17T00:19:37.193Z,3.77
2018-07-17T00:22:05.110Z,3.57
2018-07-17T00:24:32.775Z,2.60
2018-07-17T00:27:00.859Z,3.77
2018-07-17T00:29:29.082Z,3.67
2018-07-17T00:31:57.084Z,3.20
2018-07-17T00:34:25.285Z,2.93
2018-07-17T00:36:52.928Z,3.40
2018-07-17T00:39:21.219Z,4.07
2018-07-17T00:41:49.178Z,3.40
2018-07-17T00:44:16.846Z,3.67
2018-07-17T00:46:45.150Z,3.47
2018-07-17T00:49:13.094Z,2.97
2018-07-17T00:51:41.088Z,3.63
2018-07-17T00:54:09.293Z,4.00
2018-07-17T00:56:36.968Z,3.77
2018-07-17T00:59:04.848Z,2.93
2018-07-17T01:01:38.498Z,3.47
2018-07-17T01:04:11.820Z,3.10
2018-07-17T01:06:45.103Z,3.00
2018-07-17T01:09:18.214Z,3.87
2018-07-17T01:11:51.400Z,3.23
2018-07-17T01:14:39.208Z,3.10
2018-07-17T01:17:07.254Z,3.37
2018-07-17T01:19:34.988Z,3.73
2018-07-17T01:22:03.102Z,3.30
2018-07-17T01:24:30.815Z,3.50
2018-07-17T01:26:58.813Z,3.33
2018-07-17T01:29:26.569Z,3.27
2018-07-17T01:31:54.466Z,2.90
2018-07-17T01:34:22.409Z,3.10
2018-07-17T01:36:50.339Z,2.97
2018-07-17T01:39:17.996Z,3.10
2018-07-17T01:41:46.177Z,3.40
2018-07-17T01:44:15.919Z,3.40
2018-07-17T01:46:45.107Z,3.57
2018-07-17T01:49:12.982Z,3.50
2018-07-17T01:51:40.670Z,3.13
2018-07-17T01:54:08.739Z,3.90
2018-07-17T01:56:36.764Z,3.97
2018-07-17T01:59:04.797Z,3.27
2018-07-17T02:01:32.802Z,3.30
2018-07-17T02:04:00.535Z,3.40
2018-07-17T02:06:28.260Z,4.00
2018-07-17T02:08:56.250Z,3.40
2018-07-17T02:11:24.244Z,3.70
2018-07-17T02:13:52.617Z,3.90
2018-07-17T02:16:20.365Z,3.07
2018-07-17T02:18:48.728Z,3.30
2018-07-17T02:21:16.466Z,3.40
2018-07-17T02:23:44.325Z,3.60
2018-07-17T02:26:12.281Z,3.37
2018-07-17T02:28:40.334Z,3.50
2018-07-17T02:31:08.463Z,3.10
2018-07-17T02:33:36.426Z,3.70
2018-07-17T02:36:04.740Z,3.27
2018-07-17T02:38:32.394Z,3.67
2018-07-17T02:41:00.278Z,3.40
2018-07-17T02:43:27.996Z,3.50
2018-07-17T02:45:55.698Z,3.80
2018-07-17T02:48:23.419Z,3.10
2018-07-17T02:50:51.125Z,3.37
2018-07-17T02:53:19.129Z,3.30
2018-07-17T02:55:46.758Z,3.40
2018-07-17T02:58:14.799Z,3.80
2018-07-17T03:00:42.770Z,3.50
2018-07-17T03:03:10.700Z,3.20
2018-07-17T03:05:38.345Z,3.83
2018-07-17T03:08:06.871Z,3.70
2018-07-17T03:10:34.531Z,3.80
2018-07-17T03:13:02.163Z,4.03
2018-07-17T03:15:30.177Z,4.13
2018-07-17T03:17:58.417Z,3.93
2018-07-17T03:20:26.440Z,3.23
2018-07-17T03:22:54.766Z,3.70
2018-07-17T03:25:22.876Z,4.30
2018-07-17T03:27:50.576Z,3.97
2018-07-17T03:30:18.263Z,3.83
2018-07-17T03:32:46.452Z,3.73
2018-07-17T03:35:14.558Z,3.67
2018-07-17T03:37:42.294Z,3.77
2018-07-17T03:40:10.455Z,3.87
2018-07-17T03:42:38.430Z,3.50
2018-07-17T03:45:06.142Z,3.83
2018-07-17T03:47:34.167Z,3.87
2018-07-17T03:50:02.161Z,3.60
2018-07-17T03:52:30.495Z,4.00
2018-07-17T03:54:58.181Z,4.30
2018-07-17T03:57:26.268Z,3.93
2018-07-17T03:59:53.998Z,3.93
2018-07-17T04:02:22.100Z,4.37
2018-07-17T04:04:49.802Z,4.23
2018-07-17T04:07:18.109Z,4.07
2018-07-17T04:09:45.817Z,3.90
2018-07-17T04:12:13.578Z,4.43
2018-07-17T04:14:41.323Z,4.13
2018-07-17T04:17:09.374Z,4.50
2018-07-17T04:19:37.306Z,4.60
2018-07-17T04:22:05.034Z,3.77
2018-07-17T04:24:32.984Z,3.67
2018-07-17T04:27:01.004Z,4.20
2018-07-17T04:29:28.912Z,4.30
2018-07-17T04:31:57.456Z,4.20
2018-07-17T04:34:25.117Z,4.37
2018-07-17T04:36:52.971Z,3.97
2018-07-17T04:39:21.657Z,3.87
2018-07-17T04:41:49.707Z,4.00
2018-07-17T04:44:17.459Z,4.57
2018-07-17T04:46:45.237Z,4.00
2018-07-17T04:49:12.890Z,3.93
2018-07-17T04:51:40.534Z,3.80
2018-07-17T04:54:08.202Z,3.40
2018-07-17T04:56:35.822Z,3.40
2018-07-17T04:59:03.884Z,4.73
2018-07-17T05:01:31.557Z,4.20
2018-07-17T05:03:59.498Z,5.00
2018-07-17T05:06:27.315Z,5.50
2018-07-17T05:08:55.363Z,5.60
2018-07-17T05:11:23.558Z,5.13
2018-07-17T05:13:51.278Z,4.93
2018-07-17T05:16:19.014Z,4.63
2018-07-17T05:18:47.465Z,4.33
2018-07-17T05:21:15.197Z,4.50
2018-07-17T05:23:42.931Z,4.90
2018-07-17T05:26:11.067Z,5.00
2018-07-17T05:28:39.355Z,4.90
2018-07-17T05:31:07.934Z,4.63
2018-07-17T05:33:35.921Z,4.70
2018-07-17T05:36:03.674Z,5.27
2018-07-17T05:38:31.630Z,4.57
2018-07-17T05:40:59.738Z,4.50
2018-07-17T05:43:27.392Z,5.80
2018-07-17T05:45:55.024Z,4.87
2018-07-17T05:48:22.739Z,5.33
2018-07-17T05:50:50.699Z,4.50
2018-07-17T05:53:18.407Z,4.33
2018-07-17T05:55:46.073Z,4.83
2018-07-17T05:58:13.726Z,4.90
2018-07-17T06:00:41.414Z,4.47
2018-07-17T06:03:09.316Z,4.07
2018-07-17T06:05:37.007Z,4.50
2018-07-17T06:08:04.649Z,5.80
2018-07-17T06:10:32.657Z,4.70
2018-07-17T06:13:00.356Z,4.50
2018-07-17T06:15:28.039Z,5.40
2018-07-17T06:17:55.705Z,4.57
2018-07-17T06:20:24.087Z,4.10
2018-07-17T06:22:52.109Z,4.50
2018-07-17T06:25:19.962Z,5.13
2018-07-17T06:27:47.978Z,5.40
2018-07-17T06:30:15.689Z,4.43
2018-07-17T06:32:43.580Z,5.00
2018-07-17T06:35:11.332Z,4.83
2018-07-17T06:37:39.250Z,4.50
2018-07-17T06:40:06.930Z,5.10
2018-07-17T06:42:34.541Z,4.23
2018-07-17T06:45:02.263Z,5.33
2018-07-17T06:47:30.225Z,4.67
2018-07-17T06:49:57.942Z,4.60
2018-07-17T06:52:25.632Z,4.70
2018-07-17T06:54:53.302Z,3.80
2018-07-17T06:57:21.007Z,4.80
2018-07-17T06:59:48.705Z,3.93
2018-07-17T07:02:16.332Z,4.07
2018-07-17T07:04:44.077Z,3.83
2018-07-17T07:07:12.171Z,4.47
2018-07-17T07:09:40.122Z,3.97
2018-07-17T07:12:09.492Z,4.10
2018-07-17T07:14:37.650Z,4.20
2018-07-17T07:17:05.353Z,5.00
2018-07-17T07:19:33.146Z,4.20
2018-07-17T07:22:01.101Z,4.60
2018-07-17T07:24:29.032Z,3.67
2018-07-17T07:26:56.967Z,4.63
2018-07-17T07:29:24.653Z,4.17
2018-07-17T07:31:52.524Z,4.00
2018-07-17T07:34:20.622Z,3.70
2018-07-17T07:36:48.282Z,3.90
2018-07-17T07:39:16.362Z,3.80
2018-07-17T07:41:44.442Z,4.87
2018-07-17T07:44:12.119Z,3.87
2018-07-17T07:46:39.827Z,3.93
2018-07-17T07:49:07.524Z,3.53
2018-07-17T07:51:35.601Z,3.03
2018-07-17T07:54:03.634Z,3.27
2018-07-17T07:56:31.301Z,3.13
2018-07-17T07:58:58.990Z,3.07
2018-07-17T08:01:26.746Z,3.30
2018-07-17T08:03:54.655Z,3.90
2018-07-17T08:06:22.298Z,4.00
2018-07-17T08:08:50.280Z,3.87
2018-07-17T08:11:18.098Z,3.23
2018-07-17T08:13:46.325Z,3.70
2018-07-17T08:16:13.967Z,3.20
2018-07-17T08:18:41.661Z,3.93
2018-07-17T08:21:09.761Z,3.40
2018-07-17T08:23:37.498Z,3.77
2018-07-17T08:26:05.135Z,3.37
2018-07-17T08:28:32.898Z,3.77
2018-07-17T08:31:00.907Z,3.40
2018-07-17T08:33:28.600Z,3.40
2018-07-17T08:35:56.866Z,3.20
2018-07-17T08:38:25.161Z,3.60
2018-07-17T08:40:53.107Z,3.37
2018-07-17T08:43:20.946Z,3.70
2018-07-17T08:45:48.518Z,3.30
2018-07-17T08:48:16.157Z,3.27
2018-07-17T08:50:44.778Z,4.27
2018-07-17T08:53:12.946Z,3.20
2018-07-17T08:55:40.557Z,3.50
2018-07-17T08:58:08.214Z,3.37
2018-07-17T09:00:35.936Z,3.70
2018-07-17T09:03:03.588Z,4.07
2018-07-17T09:05:31.284Z,3.50
2018-07-17T09:07:59.388Z,3.17
2018-07-17T09:10:27.044Z,3.83
2018-07-17T09:12:55.056Z,3.83
2018-07-17T09:15:22.724Z,3.40
2018-07-17T09:17:50.923Z,4.13
2018-07-17T09:20:18.578Z,3.93
2018-07-17T09:22:46.482Z,3.80
2018-07-17T09:25:14.399Z,4.00
2018-07-17T09:27:42.048Z,3.57
2018-07-17T09:30:09.689Z,3.33
2018-07-17T09:32:37.991Z,3.30
2018-07-17T09:35:05.884Z,3.90
2018-07-17T09:37:33.549Z,3.77
2018-07-17T09:40:01.250Z,3.67
2018-07-17T09:42:28.870Z,3.60
2018-07-17T09:44:56.816Z,3.27
2018-07-17T09:47:25.122Z,3.70
2018-07-17T09:49:52.802Z,3.93
2018-07-17T09:52:20.515Z,3.67
2018-07-17T09:54:48.205Z,3.53
2018-07-17T09:57:15.894Z,3.20
2018-07-17T09:59:44.310Z,4.27
2018-07-17T10:02:17.857Z,3.70
2018-07-17T10:04:45.813Z,3.60
2018-07-17T10:07:13.799Z,4.10
2018-07-17T10:09:41.533Z,3.53
2018-07-17T10:12:09.365Z,3.97
2018-07-17T10:14:37.135Z,3.80
2018-07-17T10:17:05.226Z,3.83
2018-07-17T10:19:32.901Z,4.50
2018-07-17T10:22:00.592Z,4.47
2018-07-17T10:24:28.618Z,4.27
2018-07-17T10:26:56.304Z,3.87
2018-07-17T10:29:24.269Z,4.73
2018-07-17T10:31:52.262Z,3.97
2018-07-17T10:34:19.909Z,4.10
2018-07-17T10:36:47.872Z,4.30
2018-07-17T10:39:16.501Z,4.60
2018-07-17T10:41:44.668Z,4.37
2018-07-17T10:44:12.394Z,4.60
2018-07-17T10:46:40.122Z,4.70
2018-07-17T10:49:08.112Z,3.87
2018-07-17T10:51:35.790Z,4.17
2018-07-17T10:54:03.621Z,4.20
2018-07-17T10:56:31.382Z,3.97
2018-07-17T10:58:59.374Z,4.20
2018-07-17T11:01:27.238Z,4.27
2018-07-17T11:03:54.972Z,4.30
2018-07-17T11:06:22.858Z,4.70
2018-07-17T11:08:50.530Z,4.00
2018-07-17T11:11:18.458Z,4.27
2018-07-17T11:13:46.106Z,3.90
2018-07-17T11:16:13.793Z,4.30
2018-07-17T11:18:41.807Z,4.17
2018-07-17T11:21:09.450Z,4.10
2018-07-17T11:23:37.134Z,4.50
2018-07-17T11:26:05.374Z,4.20
2018-07-17T11:28:33.455Z,4.30
2018-07-17T11:31:01.113Z,4.50
2018-07-17T11:33:29.000Z,4.20
2018-07-17T11:35:56.770Z,4.33
2018-07-17T11:38:24.985Z,4.33
2018-07-17T11:40:52.897Z,4.10
2018-07-17T11:43:20.846Z,3.80
2018-07-17T11:45:48.502Z,4.30
2018-07-17T11:48:16.267Z,3.97
2018-07-17T11:50:43.887Z,4.43
2018-07-17T11:53:11.596Z,3.40
2018-07-17T11:55:39.359Z,4.00
2018-07-17T11:58:07.020Z,4.50
2018-07-17T12:00:35.213Z,3.77
2018-07-17T12:03:03.117Z,3.97
2018-07-17T12:05:31.217Z,4.43
2018-07-17T12:07:58.829Z,3.90
2018-07-17T12:10:26.803Z,4.10
2018-07-17T12:12:54.531Z,4.03
2018-07-17T12:15:22.366Z,3.80
2018-07-17T12:17:50.051Z,3.50
2018-07-17T12:20:18.101Z,4.07
2018-07-17T12:22:45.693Z,3.33
2018-07-17T12:25:13.708Z,3.60
2018-07-17T12:27:41.473Z,3.40
2018-07-17T12:30:15.222Z,3.70
2018-07-17T12:32:43.470Z,3.17
2018-07-17T12:35:11.132Z,3.50
2018-07-17T12:37:38.781Z,3.47
2018-07-17T12:40:06.724Z,3.77
2018-07-17T12:42:34.473Z,3.67
2018-07-17T12:45:02.405Z,3.60
2018-07-17T12:47:30.591Z,3.53
2018-07-17T12:49:58.265Z,4.17
2018-07-17T12:52:26.330Z,3.97
2018-07-17T12:54:54.231Z,3.80
2018-07-17T12:57:21.914Z,3.30
2018-07-17T12:59:49.964Z,3.20
2018-07-17T13:02:17.762Z,4.10
2018-07-17T13:04:46.015Z,3.57
2018-07-17T13:07:14.062Z,3.53
2018-07-17T13:09:41.757Z,4.37
2018-07-17T13:12:09.477Z,3.87
2018-07-17T13:14:37.662Z,4.00
2018-07-17T13:17:05.515Z,4.10
2018-07-17T13:19:33.520Z,4.20
2018-07-17T13:22:01.279Z,4.27
2018-07-17T13:24:28.918Z,3.70
2018-07-17T13:26:56.575Z,3.20
2018-07-17T13:29:24.906Z,4.10
2018-07-17T13:31:52.851Z,3.50
2018-07-17T13:34:20.809Z,3.23
2018-07-17T13:36:49.077Z,4.60
2018-07-17T13:39:16.931Z,4.20
2018-07-17T13:41:44.658Z,3.20
2018-07-17T13:44:12.565Z,3.97
2018-07-17T13:46:40.605Z,3.73
2018-07-17T13:49:08.298Z,3.33
2018-07-17T13:51:36.168Z,3.97
2018-07-17T13:54:04.100Z,3.50
2018-07-17T13:56:31.733Z,4.50
2018-07-17T13:58:59.379Z,3.70
2018-07-17T14:01:27.386Z,3.20
2018-07-17T14:03:55.568Z,3.63
2018-07-17T14:06:23.767Z,4.43
2018-07-17T14:08:51.634Z,3.90
2018-07-17T14:11:19.964Z,3.93
2018-07-17T14:13:48.235Z,4.33
2018-07-17T14:16:16.138Z,3.77
2018-07-17T14:18:43.830Z,3.80
2018-07-17T14:21:11.745Z,3.77
2018-07-17T14:23:39.413Z,3.87
2018-07-17T14:26:07.914Z,3.80
2018-07-17T14:28:35.581Z,3.67
2018-07-17T14:31:03.716Z,3.57
2018-07-17T14:33:31.927Z,3.43
2018-07-17T14:35:59.602Z,3.50
2018-07-17T14:38:27.806Z,3.90
2018-07-17T14:40:55.758Z,3.40
2018-07-17T14:43:23.742Z,3.60
2018-07-17T14:45:51.372Z,2.70
2018-07-17T14:48:19.656Z,3.30
2018-07-17T14:50:47.514Z,3.43
2018-07-17T14:53:15.599Z,3.20
2018-07-17T14:55:43.397Z,2.73
2018-07-17T14:58:11.064Z,2.90
2018-07-17T15:00:38.777Z,3.10
2018-07-17T15:03:06.822Z,2.70
2018-07-17T15:05:34.523Z,2.57
2018-07-17T15:08:02.393Z,2.93
2018-07-17T15:10:30.323Z,2.47
2018-07-17T15:12:58.014Z,2.70
2018-07-17T15:15:26.060Z,3.03
2018-07-17T15:17:53.699Z,2.87
2018-07-17T15:20:21.391Z,2.93
2018-07-17T15:22:49.101Z,2.70
2018-07-17T15:25:16.732Z,3.43
2018-07-17T15:27:44.847Z,2.50
2018-07-17T15:30:12.845Z,2.67
2018-07-17T15:32:40.777Z,2.70
2018-07-17T15:35:08.595Z,2.27
2018-07-17T15:37:36.306Z,2.47
2018-07-17T15:40:04.135Z,2.10
2018-07-17T15:42:31.851Z,2.10
2018-07-17T15:44:59.529Z,2.60
2018-07-17T15:47:27.486Z,2.50
2018-07-17T15:49:55.710Z,2.50
2018-07-17T15:52:23.792Z,2.40
2018-07-17T15:54:51.454Z,2.97
2018-07-17T15:57:19.756Z,2.20
2018-07-17T15:59:47.462Z,2.40
2018-07-17T16:02:15.362Z,2.10
2018-07-17T16:04:43.093Z,2.03
2018-07-17T16:07:10.855Z,2.20
2018-07-17T16:09:38.550Z,2.37
2018-07-17T16:12:06.209Z,2.20
2018-07-17T16:14:33.869Z,2.50
2018-07-17T16:17:01.639Z,2.90
2018-07-17T16:19:29.961Z,2.67
2018-07-17T16:21:57.790Z,2.90
2018-07-17T16:24:25.683Z,2.73
2018-07-17T16:26:53.458Z,2.43
2018-07-17T16:29:22.315Z,2.60
2018-07-17T16:31:50.083Z,2.80
2018-07-17T16:34:18.310Z,3.10
2018-07-17T16:36:46.103Z,2.90
2018-07-17T16:39:13.862Z,3.30
2018-07-17T16:41:41.877Z,2.87
2018-07-17T16:44:10.202Z,2.77
2018-07-17T16:46:38.114Z,2.27
2018-07-17T16:49:06.066Z,2.73
2018-07-17T16:51:34.370Z,2.80
2018-07-17T16:54:02.171Z,3.07
2018-07-17T16:56:30.113Z,3.00
2018-07-17T16:58:59.603Z,3.00
2018-07-17T17:01:27.514Z,2.37
2018-07-17T17:03:55.177Z,2.30
2018-07-17T17:06:22.876Z,3.60
2018-07-17T17:08:50.532Z,2.50
2018-07-17T17:11:19.055Z,2.37
2018-07-17T17:13:47.121Z,2.57
2018-07-17T17:16:14.756Z,2.43
2018-07-17T17:18:42.447Z,2.30
2018-07-17T17:21:10.412Z,2.40
2018-07-17T17:23:38.233Z,2.50
2018-07-17T17:26:05.896Z,2.97
2018-07-17T17:28:34.585Z,2.63
2018-07-17T17:31:02.664Z,2.10
2018-07-17T17:33:30.810Z,2.20
2018-07-17T17:35:58.511Z,2.23
2018-07-17T17:38:26.517Z,3.30
2018-07-17T17:40:54.202Z,2.20
2018-07-17T17:43:22.237Z,3.17
2018-07-17T17:45:50.159Z,2.73
2018-07-17T17:48:18.212Z,2.43
2018-07-17T17:50:46.228Z,2.93
2018-07-17T17:53:13.910Z,2.80
2018-07-17T17:55:42.053Z,2.70
2018-07-17T17:58:09.966Z,2.60
2018-07-17T18:00:39.248Z,2.57
2018-07-17T18:03:07.101Z,3.50
2018-07-17T18:05:34.766Z,4.17
2018-07-17T18:08:02.445Z,5.50
2018-07-17T18:10:30.127Z,8.63
2018-07-17T18:12:57.819Z,8.70
2018-07-17T18:15:25.926Z,8.73
2018-07-17T18:17:54.000Z,6.70
2018-07-17T18:20:22.032Z,6.30
2018-07-17T18:22:49.872Z,6.50
2018-07-17T18:25:17.894Z,6.37
2018-07-17T18:27:45.575Z,7.27
2018-07-17T18:30:13.229Z,5.90
2018-07-17T18:32:41.433Z,6.20
2018-07-17T18:35:09.530Z,5.77
2018-07-17T18:37:37.526Z,5.77
2018-07-17T18:40:05.465Z,6.00
2018-07-17T18:42:33.117Z,6.60
2018-07-17T18:45:00.825Z,6.07
2018-07-17T18:47:28.534Z,6.03
2018-07-17T18:50:12.310Z,5.50
2018-07-17T18:52:24.161Z,5.97
2018-07-17T18:54:52.165Z,6.00
2018-07-17T18:57:20.086Z,6.00
2018-07-17T18:59:48.210Z,5.30
2018-07-17T19:02:16.199Z,5.77
2018-07-17T19:04:44.139Z,5.00
2018-07-17T19:07:11.816Z,4.83
2018-07-17T19:09:39.870Z,5.27
2018-07-17T19:12:07.826Z,5.40
2018-07-17T19:14:35.468Z,5.70
2018-07-17T19:17:03.131Z,5.47
2018-07-17T19:19:31.065Z,4.90
2018-07-17T19:21:59.254Z,5.40
2018-07-17T19:24:27.136Z,5.13
2018-07-17T19:26:54.972Z,4.60
2018-07-17T19:29:22.654Z,5.43
2018-07-17T19:31:50.572Z,4.37
2018-07-17T19:34:18.484Z,5.20
2018-07-17T19:36:46.949Z,5.17
2018-07-17T19:39:14.607Z,4.40
2018-07-17T19:41:42.244Z,4.80
2018-07-17T19:44:10.235Z,5.13
2018-07-17T19:46:37.885Z,5.30
2018-07-17T19:49:05.902Z,4.53
2018-07-17T19:51:33.561Z,5.50
2018-07-17T19:54:01.753Z,5.40
2018-07-17T19:56:29.476Z,4.50
2018-07-17T19:59:00.254Z,4.80
2018-07-17T20:01:28.393Z,4.40
2018-07-17T20:03:56.377Z,5.00
2018-07-17T20:06:24.290Z,4.70
2018-07-17T20:08:51.915Z,4.83
2018-07-17T20:11:19.940Z,5.07
2018-07-17T20:13:47.538Z,5.10
2018-07-17T20:16:15.456Z,5.30
2018-07-17T20:18:43.713Z,5.73
2018-07-17T20:21:11.732Z,5.60
2018-07-17T20:23:39.459Z,5.20
2018-07-17T20:26:07.666Z,5.20
2018-07-17T20:28:35.667Z,4.63
2018-07-17T20:31:03.978Z,5.13
2018-07-17T20:33:31.888Z,5.20
2018-07-17T20:35:59.626Z,5.37
2018-07-17T20:38:27.947Z,5.80
2018-07-17T20:40:55.688Z,4.60
2018-07-17T20:43:23.308Z,5.73
2018-07-17T20:45:50.960Z,4.63
2018-07-17T20:48:18.966Z,4.10
2018-07-17T20:50:46.931Z,4.40
2018-07-17T20:53:14.567Z,4.37
2018-07-17T20:55:42.278Z,4.40
2018-07-17T20:58:09.943Z,5.10
2018-07-17T21:00:37.649Z,4.97
2018-07-17T21:03:05.317Z,4.67
2018-07-17T21:05:33.240Z,5.53
2018-07-17T21:08:01.149Z,5.17
2018-07-17T21:10:29.103Z,5.23
2018-07-17T21:12:56.984Z,4.97
2018-07-17T21:15:24.976Z,5.00
2018-07-17T21:17:52.874Z,4.60
2018-07-17T21:20:20.562Z,4.97
2018-07-17T21:22:48.229Z,5.10
2018-07-17T21:25:16.469Z,4.97
2018-07-17T21:27:44.131Z,5.13
2018-07-17T21:30:11.807Z,5.87
2018-07-17T21:32:40.046Z,5.27
2018-07-17T21:35:07.750Z,5.50
2018-07-17T21:37:35.853Z,5.53
2018-07-17T21:40:03.957Z,5.63
2018-07-17T21:42:31.574Z,5.67
2018-07-17T21:44:59.219Z,5.67
2018-07-17T21:47:27.235Z,5.63
2018-07-17T21:49:54.922Z,5.33
2018-07-17T21:52:22.897Z,5.50
2018-07-17T21:54:50.491Z,5.30
2018-07-17T21:57:18.482Z,6.27
2018-07-17T21:59:46.402Z,5.30
2018-07-17T22:02:14.045Z,5.20
2018-07-17T22:04:41.746Z,5.87
2018-07-17T22:07:09.430Z,5.63
2018-07-17T22:09:37.081Z,6.80
2018-07-17T22:12:04.962Z,5.77
2018-07-17T22:14:33.135Z,5.57
2018-07-17T22:17:00.786Z,5.93
2018-07-17T22:19:29.275Z,5.80
2018-07-17T22:21:57.189Z,5.50
2018-07-17T22:24:24.822Z,5.17
2018-07-17T22:26:52.550Z,5.53
2018-07-17T22:29:20.192Z,5.17
2018-07-17T22:31:47.803Z,5.10
2018-07-17T22:34:15.721Z,5.50
2018-07-17T22:36:43.762Z,5.30
2018-07-17T22:39:11.458Z,5.30
2018-07-17T22:41:39.145Z,5.27
2018-07-17T22:44:07.105Z,4.80
2018-07-17T22:46:35.021Z,4.30
2018-07-17T22:49:02.680Z,4.67
2018-07-17T22:51:30.578Z,5.80
2018-07-17T22:53:58.476Z,5.33
2018-07-17T22:56:27.013Z,4.30
2018-07-17T22:58:54.956Z,4.17
2018-07-17T23:01:22.585Z,4.23
2018-07-17T23:03:50.257Z,4.80
2018-07-17T23:06:17.916Z,4.90
2018-07-17T23:08:45.760Z,4.43
2018-07-17T23:11:13.435Z,5.20
2018-07-17T23:13:41.059Z,4.63
2018-07-17T23:16:09.306Z,4.43
2018-07-17T23:18:37.249Z,4.43
2018-07-17T23:21:05.183Z,3.60
2018-07-17T23:23:33.145Z,5.33
2018-07-17T23:26:00.781Z,3.93
2018-07-17T23:28:28.787Z,4.17
2018-07-17T23:30:56.689Z,4.03
2018-07-17T23:33:24.548Z,4.10
2018-07-17T23:35:52.188Z,4.83
2018-07-17T23:38:20.612Z,4.20
2018-07-17T23:40:48.885Z,5.00
2018-07-17T23:43:16.497Z,4.03
2018-07-17T23:45:44.271Z,4.13
2018-07-17T23:48:11.901Z,4.40
2018-07-17T23:50:39.821Z,4.63
2018-07-17T23:53:07.557Z,4.03
2018-07-17T23:55:35.458Z,3.90
2018-07-17T23:58:03.095Z,4.10
